createdAt,value
2022-10-14T00:01:24.248Z,8.40
2022-10-14T00:03:52.310Z,8.20
2022-10-14T00:06:23.697Z,8.30
2022-10-14T00:08:51.488Z,8.20
2022-10-14T00:11:22.973Z,8.20
2022-10-14T00:13:51.251Z,8.20
2022-10-14T00:16:22.389Z,8.20
2022-10-14T00:18:50.877Z,8.30
2022-10-14T00:21:19.105Z,8.40
2022-10-14T00:23:47.190Z,8.30
2022-10-14T00:26:24.503Z,8.30
2022-10-14T00:28:52.936Z,8.30
2022-10-14T00:31:21.004Z,8.20
2022-10-14T00:33:49.177Z,8.30
2022-10-14T00:36:20.141Z,8.40
2022-10-14T00:38:48.794Z,8.30
2022-10-14T00:41:31.166Z,8.20
2022-10-14T00:44:11.034Z,8.10
2022-10-14T00:46:44.057Z,8.10
2022-10-14T00:49:20.712Z,7.90
2022-10-14T00:51:54.150Z,7.90
2022-10-14T00:54:25.729Z,7.80
2022-10-14T00:56:53.795Z,7.60
2022-10-14T00:59:21.903Z,7.50
2022-10-14T01:01:49.796Z,7.50
2022-10-14T01:04:17.639Z,7.40
2022-10-14T01:07:06.472Z,7.40
2022-10-14T01:09:41.978Z,7.40
2022-10-14T01:12:29.575Z,7.30
2022-10-14T01:15:07.663Z,7.20
2022-10-14T01:17:59.520Z,7.40
2022-10-14T01:20:54.836Z,7.40
2022-10-14T01:23:42.755Z,7.40
2022-10-14T01:26:44.619Z,7.30
2022-10-14T01:29:26.541Z,7.10
2022-10-14T01:32:10.562Z,7.10
2022-10-14T01:34:44.919Z,7.10
2022-10-14T01:37:18.189Z,7.20
2022-10-14T01:39:57.485Z,7.10
2022-10-14T01:42:30.702Z,7.10
2022-10-14T01:45:14.653Z,7.20
2022-10-14T01:47:43.782Z,7.30
2022-10-14T01:50:17.834Z,7.30
2022-10-14T01:53:11.507Z,7.30
2022-10-14T01:55:45.447Z,7.20
2022-10-14T01:58:15.607Z,7.00
2022-10-14T02:00:43.763Z,7.00
2022-10-14T02:03:13.977Z,6.90
2022-10-14T02:05:58.559Z,6.70
2022-10-14T02:08:48.138Z,6.70
2022-10-14T02:11:18.650Z,6.80
2022-10-14T02:14:21.609Z,6.80
2022-10-14T02:16:59.017Z,6.60
2022-10-14T02:19:37.752Z,6.60
2022-10-14T02:22:14.325Z,6.60
2022-10-14T02:24:54.313Z,6.70
2022-10-14T02:27:25.675Z,6.90
2022-10-14T02:29:59.448Z,6.70
2022-10-14T02:32:28.405Z,6.70
2022-10-14T02:34:58.840Z,6.60
2022-10-14T02:37:29.744Z,6.60
2022-10-14T02:40:28.768Z,6.60
2022-10-14T02:42:56.572Z,6.60
2022-10-14T02:45:27.291Z,6.70
2022-10-14T02:47:55.111Z,6.80
2022-10-14T02:50:22.956Z,6.70
2022-10-14T02:52:52.655Z,6.60
2022-10-14T02:55:22.429Z,6.60
2022-10-14T02:57:50.424Z,6.60
2022-10-14T03:00:20.073Z,6.60
2022-10-14T03:02:47.821Z,6.70
2022-10-14T03:05:18.007Z,6.70
2022-10-14T03:07:45.701Z,6.70
2022-10-14T03:10:16.127Z,6.70
2022-10-14T03:12:44.202Z,6.60
2022-10-14T03:15:21.014Z,6.60
2022-10-14T03:17:50.106Z,6.70
2022-10-14T03:20:21.981Z,6.80
2022-10-14T03:22:53.701Z,6.80
2022-10-14T03:25:21.449Z,6.70
2022-10-14T03:28:08.489Z,6.60
2022-10-14T03:30:45.909Z,6.60
2022-10-14T03:33:20.543Z,6.60
2022-10-14T03:36:04.949Z,6.50
2022-10-14T03:38:53.037Z,6.70
2022-10-14T03:41:35.891Z,6.80
2022-10-14T03:44:03.849Z,6.70
2022-10-14T03:46:36.174Z,6.70
2022-10-14T03:49:04.274Z,6.80
2022-10-14T03:51:33.191Z,6.90
2022-10-14T03:54:13.992Z,6.90
2022-10-14T03:56:42.018Z,7.00
2022-10-14T03:59:10.148Z,7.00
2022-10-14T04:01:37.925Z,7.10
2022-10-14T04:04:25.804Z,7.10
2022-10-14T04:06:54.089Z,7.10
2022-10-14T04:09:34.608Z,7.10
2022-10-14T04:12:02.276Z,7.20
2022-10-14T04:14:48.687Z,7.30
2022-10-14T04:17:16.489Z,7.40
2022-10-14T04:19:44.868Z,7.30
2022-10-14T04:22:13.918Z,7.20
2022-10-14T04:24:41.506Z,7.30
2022-10-14T04:27:09.238Z,7.30
2022-10-14T04:29:44.379Z,7.30
2022-10-14T04:32:18.035Z,7.20
2022-10-14T04:34:46.285Z,7.10
2022-10-14T04:37:17.859Z,7.10
2022-10-14T04:40:05.759Z,7.20
2022-10-14T04:42:39.056Z,7.30
2022-10-14T04:45:13.025Z,7.20
2022-10-14T04:47:49.921Z,7.20
2022-10-14T04:50:21.758Z,7.10
2022-10-14T04:53:13.076Z,7.20
2022-10-14T04:55:51.743Z,7.20
2022-10-14T04:58:20.088Z,7.20
2022-10-14T05:00:48.979Z,7.10
2022-10-14T05:03:28.076Z,7.10
2022-10-14T05:05:56.912Z,7.20
2022-10-14T05:08:24.781Z,7.10
2022-10-14T05:10:55.431Z,7.20
2022-10-14T05:13:37.309Z,7.30
2022-10-14T05:16:09.031Z,7.30
2022-10-14T05:18:36.842Z,7.30
2022-10-14T05:21:12.406Z,7.30
2022-10-14T05:23:51.170Z,7.30
2022-10-14T05:26:19.160Z,7.30
2022-10-14T05:28:47.298Z,7.20
2022-10-14T05:31:15.111Z,7.20
2022-10-14T05:33:52.700Z,7.20
2022-10-14T05:36:20.374Z,7.40
2022-10-14T05:38:48.646Z,7.40
2022-10-14T05:41:18.135Z,7.40
2022-10-14T05:43:45.789Z,7.40
2022-10-14T05:46:13.583Z,7.50
2022-10-14T05:48:46.437Z,7.50
2022-10-14T05:51:15.509Z,7.50
2022-10-14T05:53:43.672Z,7.60
2022-10-14T05:56:16.302Z,7.70
2022-10-14T05:58:44.746Z,7.70
2022-10-14T06:01:16.413Z,7.70
2022-10-14T06:03:44.285Z,7.70
2022-10-14T06:06:14.138Z,7.80
2022-10-14T06:08:42.121Z,7.80
2022-10-14T06:11:10.070Z,8.00
2022-10-14T06:13:38.047Z,8.00
2022-10-14T06:16:09.594Z,8.00
2022-10-14T06:18:38.252Z,8.10
2022-10-14T06:21:07.257Z,8.10
2022-10-14T06:23:34.860Z,8.10
2022-10-14T06:26:07.508Z,8.20
2022-10-14T06:28:35.369Z,8.20
2022-10-14T06:31:03.977Z,8.20
2022-10-14T06:33:31.808Z,8.30
2022-10-14T06:36:01.289Z,8.40
2022-10-14T06:38:28.818Z,8.60
2022-10-14T06:40:56.389Z,8.60
2022-10-14T06:43:24.370Z,8.60
2022-10-14T06:45:52.830Z,8.70
2022-10-14T06:48:20.515Z,8.80
2022-10-14T06:50:48.080Z,8.80
2022-10-14T06:53:15.625Z,8.90
2022-10-14T06:55:43.177Z,8.90
2022-10-14T06:58:10.720Z,9.00
2022-10-14T07:00:38.390Z,9.00
2022-10-14T07:03:05.987Z,9.10
2022-10-14T07:05:33.912Z,9.10
2022-10-14T07:10:34.387Z,9.20
2022-10-14T07:13:02.001Z,9.20
2022-10-14T07:15:33.815Z,9.30
2022-10-14T07:18:05.418Z,9.40
2022-10-14T07:20:34.633Z,9.50
2022-10-14T07:23:02.188Z,9.50
2022-10-14T07:25:29.776Z,9.40
2022-10-14T07:27:57.399Z,9.30
2022-10-14T07:30:24.973Z,9.40
2022-10-14T07:32:52.532Z,9.50
2022-10-14T07:35:20.241Z,9.50
2022-10-14T07:37:47.912Z,9.60
2022-10-14T07:40:15.577Z,9.80
2022-10-14T07:42:43.108Z,9.80
2022-10-14T07:45:16.444Z,9.90
2022-10-14T07:47:45.213Z,10.10
2022-10-14T07:50:12.992Z,10.20
2022-10-14T07:52:40.622Z,10.30
2022-10-14T07:55:08.473Z,10.40
2022-10-14T07:57:36.044Z,10.50
2022-10-14T08:00:04.948Z,10.40
2022-10-14T08:02:39.695Z,10.60
2022-10-14T08:05:33.023Z,10.80
2022-10-14T08:07:55.021Z,10.90
2022-10-14T08:10:22.759Z,11.50
2022-10-14T08:12:51.256Z,11.70
2022-10-14T08:15:19.151Z,11.50
2022-10-14T08:17:46.670Z,11.50
2022-10-14T08:20:14.334Z,11.50
2022-10-14T08:22:41.865Z,11.30
2022-10-14T08:25:09.619Z,11.20
2022-10-14T08:27:37.154Z,11.20
2022-10-14T08:30:10.278Z,11.20
2022-10-14T08:32:38.755Z,11.20
2022-10-14T08:35:06.971Z,11.10
2022-10-14T08:37:34.742Z,11.00
2022-10-14T08:40:02.724Z,11.00
2022-10-14T08:42:44.145Z,11.20
2022-10-14T08:45:18.574Z,11.10
2022-10-14T08:47:48.630Z,11.10
2022-10-14T08:50:25.234Z,11.30
2022-10-14T08:53:10.340Z,11.10
2022-10-14T08:55:46.385Z,11.40
2022-10-14T08:58:31.916Z,11.50
2022-10-14T09:01:07.693Z,11.60
2022-10-14T09:03:37.653Z,11.70
2022-10-14T09:06:11.226Z,11.80
2022-10-14T09:08:48.460Z,11.60
2022-10-14T09:11:21.214Z,11.70
2022-10-14T09:13:53.053Z,11.40
2022-10-14T09:16:27.554Z,11.50
2022-10-14T09:19:00.425Z,11.50
2022-10-14T09:21:34.237Z,11.60
2022-10-14T09:24:27.740Z,11.60
2022-10-14T09:27:03.203Z,11.60
2022-10-14T09:29:41.121Z,11.60
2022-10-14T09:32:13.340Z,11.70
2022-10-14T09:34:52.063Z,11.80
2022-10-14T09:37:25.630Z,12.00
2022-10-14T09:40:12.779Z,12.10
2022-10-14T09:43:17.117Z,12.20
2022-10-14T09:45:52.661Z,12.30
2022-10-14T09:48:39.104Z,12.50
2022-10-14T09:51:28.516Z,12.50
2022-10-14T09:53:58.769Z,12.60
2022-10-14T09:56:40.637Z,12.90
2022-10-14T09:59:21.620Z,12.90
2022-10-14T10:01:52.061Z,13.00
2022-10-14T10:04:31.788Z,13.30
2022-10-14T10:07:05.889Z,13.60
2022-10-14T10:09:34.414Z,14.00
2022-10-14T10:12:23.038Z,14.30
2022-10-14T10:15:06.076Z,14.70
2022-10-14T10:17:36.099Z,14.70
2022-10-14T10:20:18.700Z,14.80
2022-10-14T10:22:46.822Z,15.00
2022-10-14T10:25:14.294Z,15.50
2022-10-14T10:27:47.722Z,15.50
2022-10-14T10:30:18.033Z,15.60
2022-10-14T10:32:58.062Z,15.90
2022-10-14T10:35:48.125Z,16.30
2022-10-14T10:38:34.843Z,15.90
2022-10-14T10:41:05.544Z,15.90
2022-10-14T10:43:40.346Z,16.50
2022-10-14T10:46:20.036Z,16.60
2022-10-14T10:48:54.472Z,17.10
2022-10-14T10:51:27.962Z,16.90
2022-10-14T10:54:14.025Z,16.70
2022-10-14T10:56:57.731Z,16.60
2022-10-14T10:59:47.301Z,16.40
2022-10-14T11:02:33.640Z,17.00
2022-10-14T11:05:08.136Z,17.30
2022-10-14T11:08:13.140Z,17.70
2022-10-14T11:11:43.204Z,17.50
2022-10-14T11:14:24.146Z,17.50
2022-10-14T11:17:41.983Z,17.40
2022-10-14T11:20:28.467Z,17.90
2022-10-14T11:23:34.895Z,17.90
2022-10-14T11:26:23.698Z,17.50
2022-10-14T11:28:59.593Z,17.70
2022-10-14T11:31:27.906Z,17.00
2022-10-14T11:34:13.483Z,16.90
2022-10-14T11:36:59.538Z,16.70
2022-10-14T11:39:42.802Z,16.50
2022-10-14T11:42:32.550Z,16.30
2022-10-14T11:45:24.968Z,16.30
2022-10-14T11:48:20.322Z,16.30
2022-10-14T11:50:52.578Z,16.30
2022-10-14T11:53:32.070Z,16.30
2022-10-14T11:56:23.689Z,16.50
2022-10-14T11:58:53.519Z,16.40
2022-10-14T12:01:27.612Z,16.30
2022-10-14T12:04:05.121Z,16.30
2022-10-14T12:06:47.389Z,16.50
2022-10-14T12:09:31.819Z,16.70
2022-10-14T12:12:05.467Z,16.70
2022-10-14T12:14:35.220Z,16.60
2022-10-14T12:17:13.609Z,16.70
2022-10-14T12:19:44.124Z,16.60
2022-10-14T12:22:27.898Z,17.00
2022-10-14T12:25:01.213Z,17.50
2022-10-14T12:27:29.930Z,17.50
2022-10-14T12:29:58.957Z,17.20
2022-10-14T12:32:28.151Z,17.20
2022-10-14T12:35:03.905Z,17.30
2022-10-14T12:37:35.524Z,18.10
2022-10-14T12:40:06.359Z,18.30
2022-10-14T12:42:57.777Z,17.70
2022-10-14T12:45:28.347Z,17.20
2022-10-14T12:48:15.927Z,16.70
2022-10-14T12:50:46.385Z,16.20
2022-10-14T12:53:27.045Z,17.30
2022-10-14T12:55:57.850Z,18.10
2022-10-14T12:58:36.398Z,18.60
2022-10-14T13:01:17.745Z,19.30
2022-10-14T13:06:42.991Z,19.90
2022-10-14T13:09:15.253Z,20.30
2022-10-14T13:11:45.215Z,19.90
2022-10-14T13:14:51.784Z,19.90
2022-10-14T13:17:38.021Z,20.00
2022-10-14T13:20:34.506Z,20.00
2022-10-14T13:23:31.835Z,19.80
2022-10-14T13:26:27.807Z,20.30
2022-10-14T13:29:25.544Z,20.40
2022-10-14T13:32:10.568Z,19.60
2022-10-14T13:34:44.206Z,19.30
2022-10-14T13:37:32.539Z,18.70
2022-10-14T13:40:24.422Z,18.40
2022-10-14T13:42:56.532Z,18.20
2022-10-14T13:45:46.039Z,18.20
2022-10-14T13:48:19.557Z,18.10
2022-10-14T13:50:50.944Z,17.80
2022-10-14T13:53:22.385Z,17.70
2022-10-14T13:56:09.285Z,17.30
2022-10-14T13:58:41.864Z,17.00
2022-10-14T14:01:12.131Z,16.60
2022-10-14T14:03:43.834Z,16.30
2022-10-14T14:06:17.472Z,16.50
2022-10-14T14:09:07.936Z,16.30
2022-10-14T14:11:37.540Z,16.30
2022-10-14T14:14:09.488Z,16.20
2022-10-14T14:16:40.861Z,16.10
2022-10-14T14:19:39.055Z,16.10
2022-10-14T14:22:06.560Z,16.10
2022-10-14T14:24:36.760Z,16.10
2022-10-14T14:27:04.533Z,16.20
2022-10-14T14:29:33.331Z,16.30
2022-10-14T14:32:06.549Z,16.20
2022-10-14T14:34:37.584Z,15.90
2022-10-14T14:37:25.064Z,15.60
2022-10-14T14:40:03.805Z,15.40
2022-10-14T14:42:39.763Z,15.20
2022-10-14T14:45:12.787Z,15.00
2022-10-14T14:47:41.736Z,14.90
2022-10-14T14:50:31.188Z,14.70
2022-10-14T14:53:20.601Z,14.80
2022-10-14T14:55:54.121Z,14.80
2022-10-14T14:58:29.758Z,14.90
2022-10-14T15:00:57.437Z,14.80
2022-10-14T15:03:28.074Z,14.70
2022-10-14T15:06:01.247Z,14.60
2022-10-14T15:08:38.102Z,14.40
2022-10-14T15:11:06.487Z,14.30
2022-10-14T15:13:40.365Z,14.10
2022-10-14T15:16:08.515Z,14.00
2022-10-14T15:18:37.853Z,13.90
2022-10-14T15:21:11.849Z,13.80
2022-10-14T15:24:00.513Z,13.70
2022-10-14T15:26:28.002Z,13.70
2022-10-14T15:29:22.579Z,13.60
2022-10-14T15:32:23.526Z,13.60
2022-10-14T15:34:59.314Z,13.50
2022-10-14T15:37:26.832Z,13.40
2022-10-14T15:40:18.789Z,13.40
2022-10-14T15:42:47.715Z,13.30
2022-10-14T15:45:15.868Z,13.30
2022-10-14T15:47:43.557Z,13.20
2022-10-14T15:50:20.025Z,13.10
2022-10-14T15:52:57.026Z,13.00
2022-10-14T15:55:27.964Z,13.00
2022-10-14T15:57:55.742Z,13.00
2022-10-14T16:00:24.603Z,12.90
2022-10-14T16:03:00.510Z,12.80
2022-10-14T16:05:29.474Z,12.80
2022-10-14T16:07:57.826Z,12.80
2022-10-14T16:10:29.310Z,12.60
2022-10-14T16:13:00.042Z,12.50
2022-10-14T16:15:39.879Z,12.40
2022-10-14T16:18:07.471Z,12.30
2022-10-14T16:20:35.772Z,12.30
2022-10-14T16:23:04.710Z,12.20
2022-10-14T16:25:44.001Z,12.20
2022-10-14T16:28:13.292Z,12.10
2022-10-14T16:30:48.659Z,12.00
2022-10-14T16:33:17.889Z,12.00
2022-10-14T16:35:55.495Z,11.90
2022-10-14T16:38:24.305Z,11.70
2022-10-14T16:41:06.416Z,11.70
2022-10-14T16:43:34.059Z,11.70
2022-10-14T16:46:03.727Z,11.70
2022-10-14T16:48:34.109Z,11.60
2022-10-14T16:51:02.067Z,11.50
2022-10-14T16:53:43.640Z,11.40
2022-10-14T16:56:50.801Z,11.30
2022-10-14T16:59:18.508Z,11.30
2022-10-14T17:01:46.574Z,11.20
2022-10-14T17:04:20.100Z,11.10
2022-10-14T17:06:52.094Z,11.00
2022-10-14T17:09:20.160Z,11.00
2022-10-14T17:11:48.050Z,10.90
2022-10-14T17:14:19.203Z,10.90
2022-10-14T17:16:47.173Z,10.90
2022-10-14T17:19:14.695Z,10.80
2022-10-14T17:21:42.381Z,10.80
2022-10-14T17:24:10.723Z,10.80
2022-10-14T17:26:38.288Z,10.70
2022-10-14T17:29:08.606Z,10.60
2022-10-14T17:31:56.513Z,10.60
2022-10-14T17:34:24.329Z,10.60
2022-10-14T17:36:52.069Z,10.60
2022-10-14T17:39:25.847Z,10.50
2022-10-14T17:41:57.989Z,10.50
2022-10-14T17:44:25.870Z,10.60
2022-10-14T17:46:54.084Z,10.60
2022-10-14T17:49:21.916Z,10.50
2022-10-14T17:51:49.508Z,10.60
2022-10-14T17:54:17.001Z,10.60
2022-10-14T17:56:44.580Z,10.60
2022-10-14T17:59:14.120Z,10.60
2022-10-14T18:04:30.033Z,10.70
2022-10-14T18:06:58.625Z,10.70
2022-10-14T18:09:28.749Z,10.70
2022-10-14T18:12:13.155Z,10.70
2022-10-14T18:14:41.559Z,10.60
2022-10-14T18:17:13.543Z,10.60
2022-10-14T18:19:41.766Z,10.60
2022-10-14T18:22:11.375Z,10.60
2022-10-14T18:24:39.341Z,10.50
2022-10-14T18:27:07.344Z,10.40
2022-10-14T18:29:34.904Z,10.40
2022-10-14T18:32:02.651Z,10.40
2022-10-14T18:34:30.297Z,10.40
2022-10-14T18:36:57.888Z,10.40
2022-10-14T18:39:25.509Z,10.40
2022-10-14T18:41:53.003Z,10.40
2022-10-14T18:44:20.613Z,10.40
2022-10-14T18:46:48.350Z,10.30
2022-10-14T18:49:15.952Z,10.40
2022-10-14T18:51:44.051Z,10.40
2022-10-14T18:54:15.316Z,10.50
2022-10-14T18:56:44.508Z,10.40
2022-10-14T18:59:20.531Z,10.40
2022-10-14T19:01:53.224Z,10.40
2022-10-14T19:04:24.322Z,10.50
2022-10-14T19:06:52.003Z,10.50
2022-10-14T19:09:22.283Z,10.50
2022-10-14T19:11:50.858Z,10.50
2022-10-14T19:14:18.468Z,10.50
2022-10-14T19:16:47.626Z,10.50
2022-10-14T19:19:18.511Z,10.50
2022-10-14T19:21:49.185Z,10.50
2022-10-14T19:24:17.371Z,10.40
2022-10-14T19:26:46.749Z,10.50
2022-10-14T19:29:15.821Z,10.50
2022-10-14T19:31:44.205Z,10.50
2022-10-14T19:34:14.963Z,10.60
2022-10-14T19:36:44.201Z,10.60
2022-10-14T19:39:15.190Z,10.50
2022-10-14T19:41:44.458Z,10.50
2022-10-14T19:44:13.807Z,10.60
2022-10-14T19:46:41.750Z,10.60
2022-10-14T19:49:14.272Z,10.60
2022-10-14T19:51:42.184Z,10.50
2022-10-14T19:54:12.209Z,10.60
2022-10-14T19:56:39.913Z,10.60
2022-10-14T19:59:07.560Z,10.60
2022-10-14T20:01:35.314Z,10.60
2022-10-14T20:04:03.199Z,10.60
2022-10-14T20:06:35.803Z,10.60
2022-10-14T20:09:07.784Z,10.60
2022-10-14T20:11:36.007Z,10.50
2022-10-14T20:14:03.627Z,10.50
2022-10-14T20:16:33.857Z,10.50
2022-10-14T20:19:01.644Z,10.50
2022-10-14T20:21:33.005Z,10.50
2022-10-14T20:24:00.814Z,10.40
2022-10-14T20:26:28.493Z,10.50
2022-10-14T20:28:56.254Z,10.40
2022-10-14T20:31:27.204Z,10.40
2022-10-14T20:33:57.770Z,10.50
2022-10-14T20:36:25.478Z,10.50
2022-10-14T20:38:53.041Z,10.50
2022-10-14T20:41:23.637Z,10.40
2022-10-14T20:43:52.319Z,10.40
2022-10-14T20:46:20.321Z,10.50
2022-10-14T20:48:47.856Z,10.50
2022-10-14T20:51:18.059Z,10.50
2022-10-14T20:54:12.787Z,10.40
2022-10-14T20:56:59.650Z,10.50
2022-10-14T20:59:27.381Z,10.50
2022-10-14T21:01:55.278Z,10.60
2022-10-14T21:04:23.052Z,10.50
2022-10-14T21:06:50.714Z,10.50
2022-10-14T21:09:20.994Z,10.50
2022-10-14T21:11:48.676Z,10.40
2022-10-14T21:14:17.683Z,10.30
2022-10-14T21:16:47.475Z,10.40
2022-10-14T21:19:15.963Z,10.40
2022-10-14T21:21:46.820Z,10.50
2022-10-14T21:24:17.439Z,10.50
2022-10-14T21:26:46.514Z,10.50
2022-10-14T21:29:15.335Z,10.50
2022-10-14T21:31:43.288Z,10.40
2022-10-14T21:34:11.983Z,10.40
2022-10-14T21:36:40.027Z,10.40
2022-10-14T21:39:17.458Z,10.50
2022-10-14T21:44:47.962Z,10.40
2022-10-14T21:47:50.694Z,10.40
2022-10-14T21:50:39.181Z,10.40
2022-10-14T21:53:16.072Z,10.30
2022-10-14T21:56:27.339Z,10.20
2022-10-14T21:58:58.527Z,10.20
2022-10-14T22:02:02.838Z,10.20
2022-10-14T22:04:51.206Z,10.20
2022-10-14T22:07:42.084Z,10.00
2022-10-14T22:10:52.356Z,9.90
2022-10-14T22:13:36.407Z,10.00
2022-10-14T22:16:11.068Z,10.00
2022-10-14T22:19:11.464Z,10.00
2022-10-14T22:22:05.258Z,9.90
2022-10-14T22:24:50.952Z,9.90
2022-10-14T22:27:34.041Z,9.80
2022-10-14T22:30:37.514Z,9.90
2022-10-14T22:33:10.529Z,9.90
2022-10-14T22:35:51.121Z,9.80
2022-10-14T22:39:02.643Z,9.80
2022-10-14T22:41:36.506Z,9.70
2022-10-14T22:44:13.202Z,9.80
2022-10-14T22:46:46.617Z,9.90
2022-10-14T22:49:30.836Z,9.90
2022-10-14T22:52:15.818Z,9.80
2022-10-14T22:54:48.351Z,9.80
2022-10-14T22:57:36.446Z,9.80
2022-10-14T23:00:16.846Z,9.90
2022-10-14T23:02:51.145Z,9.90
2022-10-14T23:05:41.457Z,9.70
2022-10-14T23:08:17.643Z,9.70
2022-10-14T23:10:55.685Z,9.60
2022-10-14T23:13:23.281Z,9.60
2022-10-14T23:15:58.296Z,9.50
2022-10-14T23:18:28.137Z,9.50
2022-10-14T23:20:56.326Z,9.40
2022-10-14T23:23:24.238Z,9.40
2022-10-14T23:25:51.844Z,9.40
2022-10-14T23:28:19.355Z,9.40
2022-10-14T23:30:46.884Z,9.30
2022-10-14T23:33:14.646Z,9.30
2022-10-14T23:35:42.164Z,9.30
2022-10-14T23:38:12.428Z,9.40
2022-10-14T23:40:40.001Z,9.40
2022-10-14T23:43:07.697Z,9.50
2022-10-14T23:45:35.310Z,9.60
2022-10-14T23:48:02.978Z,9.50
2022-10-14T23:50:30.448Z,9.60
2022-10-14T23:52:57.921Z,9.70
2022-10-14T23:55:25.604Z,9.70
2022-10-14T23:57:53.111Z,9.80
